sensor_id;sensor_type;location;lat;lon;timestamp;noise_LAeq;noise_LA_min;noise_LA_max;noise_LA01;noise_LA95
38366;Laerm;943;51.568;6.998;2024-02-28T00:02:13;38.60;34.82;44.34;;
38366;Laerm;943;51.568;6.998;2024-02-28T00:04:42;37.50;33.99;42.92;;
38366;Laerm;943;51.568;6.998;2024-02-28T00:07:11;39.35;33.82;44.77;;
38366;Laerm;943;51.568;6.998;2024-02-28T00:09:39;38.18;35.43;42.00;;
38366;Laerm;943;51.568;6.998;2024-02-28T00:12:08;39.14;35.29;44.61;;
38366;Laerm;943;51.568;6.998;2024-02-28T00:14:39;38.75;35.18;44.16;;
38366;Laerm;943;51.568;6.998;2024-02-28T00:17:08;38.01;35.58;45.19;;
38366;Laerm;943;51.568;6.998;2024-02-28T00:19:37;37.48;34.42;42.90;;
38366;Laerm;943;51.568;6.998;2024-02-28T00:22:05;40.46;34.66;46.83;;
38366;Laerm;943;51.568;6.998;2024-02-28T00:24:34;39.95;35.16;48.10;;
38366;Laerm;943;51.568;6.998;2024-02-28T00:27:03;38.09;34.66;47.51;;
38366;Laerm;943;51.568;6.998;2024-02-28T00:29:32;40.01;35.88;45.16;;
38366;Laerm;943;51.568;6.998;2024-02-28T00:32:00;39.33;35.16;48.88;;
38366;Laerm;943;51.568;6.998;2024-02-28T00:34:29;41.55;36.58;46.36;;
38366;Laerm;943;51.568;6.998;2024-02-28T00:36:57;39.16;36.40;42.59;;
38366;Laerm;943;51.568;6.998;2024-02-28T00:39:26;38.00;35.08;41.03;;
38366;Laerm;943;51.568;6.998;2024-02-28T00:41:55;38.40;35.21;43.02;;
38366;Laerm;943;51.568;6.998;2024-02-28T00:44:24;38.59;35.95;43.01;;
38366;Laerm;943;51.568;6.998;2024-02-28T00:46:52;41.84;36.27;48.17;;
38366;Laerm;943;51.568;6.998;2024-02-28T00:49:21;39.82;35.67;44.95;;
38366;Laerm;943;51.568;6.998;2024-02-28T00:51:50;40.00;36.13;44.24;;
38366;Laerm;943;51.568;6.998;2024-02-28T00:54:19;37.97;34.75;43.40;;
38366;Laerm;943;51.568;6.998;2024-02-28T00:56:50;37.79;34.69;41.75;;
38366;Laerm;943;51.568;6.998;2024-02-28T00:59:18;38.20;34.56;43.39;;
38366;Laerm;943;51.568;6.998;2024-02-28T01:01:49;42.59;35.67;48.78;;
38366;Laerm;943;51.568;6.998;2024-02-28T01:04:18;39.12;34.38;44.57;;
38366;Laerm;943;51.568;6.998;2024-02-28T01:06:48;38.85;34.29;42.74;;
38366;Laerm;943;51.568;6.998;2024-02-28T01:09:16;40.50;36.62;47.95;;
38366;Laerm;943;51.568;6.998;2024-02-28T01:11:45;38.90;35.54;43.80;;
38366;Laerm;943;51.568;6.998;2024-02-28T01:14:14;39.35;35.85;48.22;;
38366;Laerm;943;51.568;6.998;2024-02-28T01:16:43;38.76;35.35;46.33;;
38366;Laerm;943;51.568;6.998;2024-02-28T01:19:12;39.64;35.62;44.84;;
38366;Laerm;943;51.568;6.998;2024-02-28T01:21:40;40.68;37.25;45.49;;
38366;Laerm;943;51.568;6.998;2024-02-28T01:24:09;39.42;36.06;44.29;;
38366;Laerm;943;51.568;6.998;2024-02-28T01:26:41;38.66;35.50;44.50;;
38366;Laerm;943;51.568;6.998;2024-02-28T01:29:12;39.73;36.31;44.69;;
38366;Laerm;943;51.568;6.998;2024-02-28T01:31:40;39.42;36.42;44.32;;
38366;Laerm;943;51.568;6.998;2024-02-28T01:34:09;40.19;35.25;44.93;;
38366;Laerm;943;51.568;6.998;2024-02-28T01:36:37;40.43;35.86;47.77;;
38366;Laerm;943;51.568;6.998;2024-02-28T01:39:06;38.67;35.19;43.14;;
38366;Laerm;943;51.568;6.998;2024-02-28T01:41:34;38.81;36.43;41.53;;
38366;Laerm;943;51.568;6.998;2024-02-28T01:44:03;39.24;36.69;43.63;;
38366;Laerm;943;51.568;6.998;2024-02-28T01:46:35;39.19;37.01;42.97;;
38366;Laerm;943;51.568;6.998;2024-02-28T01:49:04;38.38;35.74;43.14;;
38366;Laerm;943;51.568;6.998;2024-02-28T01:51:34;38.00;35.25;41.27;;
38366;Laerm;943;51.568;6.998;2024-02-28T01:54:04;38.82;35.96;52.19;;
38366;Laerm;943;51.568;6.998;2024-02-28T01:56:35;39.61;36.12;45.12;;
38366;Laerm;943;51.568;6.998;2024-02-28T01:59:04;38.98;35.15;53.60;;
38366;Laerm;943;51.568;6.998;2024-02-28T02:01:33;39.39;35.75;46.20;;
38366;Laerm;943;51.568;6.998;2024-02-28T02:04:04;37.85;34.77;42.75;;
38366;Laerm;943;51.568;6.998;2024-02-28T02:06:38;37.36;34.73;41.30;;
38366;Laerm;943;51.568;6.998;2024-02-28T02:09:11;36.66;34.25;39.79;;
38366;Laerm;943;51.568;6.998;2024-02-28T02:11:40;38.27;35.35;41.56;;
38366;Laerm;943;51.568;6.998;2024-02-28T02:14:10;37.11;33.93;40.87;;
38366;Laerm;943;51.568;6.998;2024-02-28T02:16:38;37.76;34.32;44.96;;
38366;Laerm;943;51.568;6.998;2024-02-28T02:19:10;38.49;35.08;41.85;;
38366;Laerm;943;51.568;6.998;2024-02-28T02:21:53;37.57;34.84;41.65;;
38366;Laerm;943;51.568;6.998;2024-02-28T02:24:22;36.93;34.11;42.66;;
38366;Laerm;943;51.568;6.998;2024-02-28T02:26:58;36.87;33.92;40.52;;
38366;Laerm;943;51.568;6.998;2024-02-28T02:29:29;37.62;34.22;44.33;;
38366;Laerm;943;51.568;6.998;2024-02-28T02:31:58;37.56;34.02;51.26;;
38366;Laerm;943;51.568;6.998;2024-02-28T02:34:27;37.26;34.64;49.41;;
38366;Laerm;943;51.568;6.998;2024-02-28T02:36:56;37.51;34.75;45.97;;
38366;Laerm;943;51.568;6.998;2024-02-28T02:39:24;38.39;34.32;44.09;;
38366;Laerm;943;51.568;6.998;2024-02-28T02:41:53;38.03;35.46;41.44;;
38366;Laerm;943;51.568;6.998;2024-02-28T02:44:23;39.15;35.52;44.11;;
38366;Laerm;943;51.568;6.998;2024-02-28T02:46:53;39.46;36.21;49.02;;
38366;Laerm;943;51.568;6.998;2024-02-28T02:49:22;38.76;36.18;42.78;;
38366;Laerm;943;51.568;6.998;2024-02-28T02:51:51;37.33;34.61;45.35;;
38366;Laerm;943;51.568;6.998;2024-02-28T02:54:19;41.33;35.32;47.80;;
38366;Laerm;943;51.568;6.998;2024-02-28T02:56:48;37.52;34.69;46.06;;
38366;Laerm;943;51.568;6.998;2024-02-28T02:59:17;39.28;35.48;44.95;;
38366;Laerm;943;51.568;6.998;2024-02-28T03:01:45;41.80;34.85;53.29;;
38366;Laerm;943;51.568;6.998;2024-02-28T03:04:14;39.00;35.85;44.21;;
38366;Laerm;943;51.568;6.998;2024-02-28T03:06:42;38.92;35.91;53.41;;
38366;Laerm;943;51.568;6.998;2024-02-28T03:09:12;39.80;35.31;47.29;;
38366;Laerm;943;51.568;6.998;2024-02-28T03:11:40;38.37;35.57;45.60;;
38366;Laerm;943;51.568;6.998;2024-02-28T03:14:09;37.90;35.26;54.59;;
38366;Laerm;943;51.568;6.998;2024-02-28T03:16:43;41.11;36.32;56.06;;
38366;Laerm;943;51.568;6.998;2024-02-28T03:19:12;38.77;36.07;53.53;;
38366;Laerm;943;51.568;6.998;2024-02-28T03:21:41;38.45;35.72;51.53;;
38366;Laerm;943;51.568;6.998;2024-02-28T03:24:10;38.99;36.47;44.18;;
38366;Laerm;943;51.568;6.998;2024-02-28T03:26:45;38.27;35.41;41.32;;
38366;Laerm;943;51.568;6.998;2024-02-28T03:29:15;39.21;36.27;44.13;;
38366;Laerm;943;51.568;6.998;2024-02-28T03:31:43;38.20;36.24;41.81;;
38366;Laerm;943;51.568;6.998;2024-02-28T03:34:13;38.64;35.82;43.51;;
38366;Laerm;943;51.568;6.998;2024-02-28T03:36:41;38.41;35.71;42.80;;
38366;Laerm;943;51.568;6.998;2024-02-28T03:39:10;39.03;35.88;43.60;;
38366;Laerm;943;51.568;6.998;2024-02-28T03:41:39;39.53;36.66;50.31;;
38366;Laerm;943;51.568;6.998;2024-02-28T03:44:08;39.67;36.39;57.73;;
38366;Laerm;943;51.568;6.998;2024-02-28T03:46:37;39.74;37.48;44.24;;
38366;Laerm;943;51.568;6.998;2024-02-28T03:49:06;38.87;36.22;44.24;;
38366;Laerm;943;51.568;6.998;2024-02-28T03:51:41;39.75;37.18;56.36;;
38366;Laerm;943;51.568;6.998;2024-02-28T03:54:11;40.99;37.30;45.71;;
38366;Laerm;943;51.568;6.998;2024-02-28T03:56:40;40.31;37.12;57.47;;
38366;Laerm;943;51.568;6.998;2024-02-28T03:59:09;41.64;38.48;61.25;;
38366;Laerm;943;51.568;6.998;2024-02-28T04:01:38;44.07;38.31;66.58;;
38366;Laerm;943;51.568;6.998;2024-02-28T04:04:09;51.03;38.02;69.89;;
38366;Laerm;943;51.568;6.998;2024-02-28T04:06:38;42.87;37.30;63.33;;
38366;Laerm;943;51.568;6.998;2024-02-28T04:09:07;44.14;39.10;64.83;;
38366;Laerm;943;51.568;6.998;2024-02-28T04:11:38;42.82;39.13;57.98;;
38366;Laerm;943;51.568;6.998;2024-02-28T04:14:09;43.73;38.99;58.26;;
38366;Laerm;943;51.568;6.998;2024-02-28T04:16:50;42.06;39.07;45.20;;
38366;Laerm;943;51.568;6.998;2024-02-28T04:19:19;41.68;39.30;45.22;;
38366;Laerm;943;51.568;6.998;2024-02-28T04:21:50;42.04;39.07;46.36;;
38366;Laerm;943;51.568;6.998;2024-02-28T04:24:18;43.94;39.68;51.79;;
38366;Laerm;943;51.568;6.998;2024-02-28T04:26:48;42.24;38.95;46.41;;
38366;Laerm;943;51.568;6.998;2024-02-28T04:29:17;42.32;39.26;47.46;;
38366;Laerm;943;51.568;6.998;2024-02-28T04:31:46;50.36;38.66;70.48;;
38366;Laerm;943;51.568;6.998;2024-02-28T04:34:14;47.55;40.10;66.16;;
38366;Laerm;943;51.568;6.998;2024-02-28T04:36:43;45.37;40.10;59.20;;
38366;Laerm;943;51.568;6.998;2024-02-28T04:39:11;46.26;40.17;59.49;;
38366;Laerm;943;51.568;6.998;2024-02-28T04:41:40;46.06;38.88;60.52;;
38366;Laerm;943;51.568;6.998;2024-02-28T04:44:09;46.15;39.86;63.36;;
38366;Laerm;943;51.568;6.998;2024-02-28T04:46:38;47.91;39.93;64.40;;
38366;Laerm;943;51.568;6.998;2024-02-28T04:49:09;48.06;39.68;69.64;;
38366;Laerm;943;51.568;6.998;2024-02-28T04:51:39;46.56;38.60;63.17;;
38366;Laerm;943;51.568;6.998;2024-02-28T04:54:09;45.66;39.06;59.04;;
38366;Laerm;943;51.568;6.998;2024-02-28T04:56:43;45.10;39.36;60.81;;
38366;Laerm;943;51.568;6.998;2024-02-28T04:59:13;45.44;39.08;63.18;;
38366;Laerm;943;51.568;6.998;2024-02-28T05:01:45;45.74;39.24;61.35;;
38366;Laerm;943;51.568;6.998;2024-02-28T05:04:14;45.87;38.59;58.98;;
38366;Laerm;943;51.568;6.998;2024-02-28T05:06:43;46.56;39.35;59.10;;
38366;Laerm;943;51.568;6.998;2024-02-28T05:09:12;47.68;39.28;60.42;;
38366;Laerm;943;51.568;6.998;2024-02-28T05:11:43;47.18;39.42;58.76;;
38366;Laerm;943;51.568;6.998;2024-02-28T05:14:12;47.02;38.88;58.35;;
38366;Laerm;943;51.568;6.998;2024-02-28T05:16:42;48.66;40.31;60.81;;
38366;Laerm;943;51.568;6.998;2024-02-28T05:19:10;48.13;39.59;62.25;;
38366;Laerm;943;51.568;6.998;2024-02-28T05:21:43;47.13;39.37;58.97;;
38366;Laerm;943;51.568;6.998;2024-02-28T05:24:13;47.38;38.75;59.68;;
38366;Laerm;943;51.568;6.998;2024-02-28T05:26:42;47.31;39.53;59.02;;
38366;Laerm;943;51.568;6.998;2024-02-28T05:29:13;47.32;38.98;59.80;;
38366;Laerm;943;51.568;6.998;2024-02-28T05:31:42;47.63;38.76;60.88;;
38366;Laerm;943;51.568;6.998;2024-02-28T05:34:12;47.81;39.84;58.33;;
38366;Laerm;943;51.568;6.998;2024-02-28T05:36:42;47.90;39.29;61.31;;
38366;Laerm;943;51.568;6.998;2024-02-28T05:39:11;48.50;39.71;59.85;;
38366;Laerm;943;51.568;6.998;2024-02-28T05:41:41;48.10;39.76;59.55;;
38366;Laerm;943;51.568;6.998;2024-02-28T05:44:09;49.33;41.36;61.97;;
38366;Laerm;943;51.568;6.998;2024-02-28T05:46:41;49.00;40.55;64.41;;
38366;Laerm;943;51.568;6.998;2024-02-28T05:49:11;48.24;39.50;63.03;;
38366;Laerm;943;51.568;6.998;2024-02-28T05:51:40;47.48;39.79;58.30;;
38366;Laerm;943;51.568;6.998;2024-02-28T05:54:10;51.41;40.30;69.19;;
38366;Laerm;943;51.568;6.998;2024-02-28T05:56:39;48.27;40.32;70.85;;
38366;Laerm;943;51.568;6.998;2024-02-28T05:59:08;44.25;40.25;55.51;;
38366;Laerm;943;51.568;6.998;2024-02-28T06:01:40;43.40;39.76;51.01;;
38366;Laerm;943;51.568;6.998;2024-02-28T06:04:10;44.60;39.87;51.11;;
38366;Laerm;943;51.568;6.998;2024-02-28T06:06:39;45.81;39.41;60.60;;
38366;Laerm;943;51.568;6.998;2024-02-28T06:09:11;46.08;40.10;58.83;;
38366;Laerm;943;51.568;6.998;2024-02-28T06:11:41;50.11;38.65;66.50;;
38366;Laerm;943;51.568;6.998;2024-02-28T06:14:11;48.89;40.44;67.61;;
38366;Laerm;943;51.568;6.998;2024-02-28T06:16:40;49.24;40.23;78.88;;
38366;Laerm;943;51.568;6.998;2024-02-28T06:19:08;43.98;40.17;55.75;;
38366;Laerm;943;51.568;6.998;2024-02-28T06:21:37;44.34;39.77;58.21;;
38366;Laerm;943;51.568;6.998;2024-02-28T06:24:06;44.68;40.34;59.29;;
38366;Laerm;943;51.568;6.998;2024-02-28T06:26:36;43.65;38.61;50.59;;
38366;Laerm;943;51.568;6.998;2024-02-28T06:29:08;46.41;42.38;56.08;;
38366;Laerm;943;51.568;6.998;2024-02-28T06:31:37;48.32;41.63;61.55;;
38366;Laerm;943;51.568;6.998;2024-02-28T06:34:08;43.96;40.63;50.99;;
38366;Laerm;943;51.568;6.998;2024-02-28T06:36:41;45.43;41.93;56.74;;
38366;Laerm;943;51.568;6.998;2024-02-28T06:39:11;46.55;42.10;57.71;;
38366;Laerm;943;51.568;6.998;2024-02-28T06:41:41;45.00;40.92;57.78;;
38366;Laerm;943;51.568;6.998;2024-02-28T06:44:12;45.88;41.73;64.14;;
38366;Laerm;943;51.568;6.998;2024-02-28T06:46:42;45.38;41.32;61.61;;
38366;Laerm;943;51.568;6.998;2024-02-28T06:49:11;47.63;41.17;59.20;;
38366;Laerm;943;51.568;6.998;2024-02-28T06:51:40;47.21;41.78;64.56;;
38366;Laerm;943;51.568;6.998;2024-02-28T06:54:11;48.88;42.26;66.05;;
38366;Laerm;943;51.568;6.998;2024-02-28T06:56:41;44.97;40.95;55.28;;
38366;Laerm;943;51.568;6.998;2024-02-28T06:59:10;46.01;40.32;63.84;;
38366;Laerm;943;51.568;6.998;2024-02-28T07:01:39;46.06;41.92;60.00;;
38366;Laerm;943;51.568;6.998;2024-02-28T07:04:08;46.93;41.31;59.10;;
38366;Laerm;943;51.568;6.998;2024-02-28T07:06:38;45.72;41.40;60.50;;
38366;Laerm;943;51.568;6.998;2024-02-28T07:09:12;44.52;41.03;59.53;;
38366;Laerm;943;51.568;6.998;2024-02-28T07:11:43;45.52;40.31;53.77;;
38366;Laerm;943;51.568;6.998;2024-02-28T07:14:13;45.31;41.36;63.56;;
38366;Laerm;943;51.568;6.998;2024-02-28T07:16:45;46.92;40.82;69.35;;
38366;Laerm;943;51.568;6.998;2024-02-28T07:19:13;47.94;41.17;67.89;;
38366;Laerm;943;51.568;6.998;2024-02-28T07:21:42;46.11;41.05;58.97;;
38366;Laerm;943;51.568;6.998;2024-02-28T07:24:11;45.81;41.43;64.37;;
38366;Laerm;943;51.568;6.998;2024-02-28T07:26:42;46.33;42.27;57.82;;
38366;Laerm;943;51.568;6.998;2024-02-28T07:29:12;44.51;40.11;54.48;;
38366;Laerm;943;51.568;6.998;2024-02-28T07:31:41;45.91;40.76;56.86;;
38366;Laerm;943;51.568;6.998;2024-02-28T07:34:11;45.63;40.75;58.72;;
38366;Laerm;943;51.568;6.998;2024-02-28T07:36:40;45.65;42.22;55.63;;
38366;Laerm;943;51.568;6.998;2024-02-28T07:39:13;45.96;41.06;54.26;;
38366;Laerm;943;51.568;6.998;2024-02-28T07:41:45;46.17;41.91;58.27;;
38366;Laerm;943;51.568;6.998;2024-02-28T07:44:14;47.41;42.18;61.48;;
38366;Laerm;943;51.568;6.998;2024-02-28T07:46:44;46.45;42.22;59.40;;
38366;Laerm;943;51.568;6.998;2024-02-28T07:49:13;49.66;41.32;66.84;;
38366;Laerm;943;51.568;6.998;2024-02-28T07:51:44;45.05;41.65;52.89;;
38366;Laerm;943;51.568;6.998;2024-02-28T07:54:13;45.89;42.04;53.76;;
38366;Laerm;943;51.568;6.998;2024-02-28T07:56:44;46.37;41.10;54.66;;
38366;Laerm;943;51.568;6.998;2024-02-28T07:59:12;46.10;41.22;54.63;;
38366;Laerm;943;51.568;6.998;2024-02-28T08:01:43;45.33;41.11;60.41;;
38366;Laerm;943;51.568;6.998;2024-02-28T08:04:12;45.44;41.60;62.61;;
38366;Laerm;943;51.568;6.998;2024-02-28T08:06:41;46.48;41.04;68.16;;
38366;Laerm;943;51.568;6.998;2024-02-28T08:09:11;46.82;41.19;59.21;;
38366;Laerm;943;51.568;6.998;2024-02-28T08:11:41;45.66;41.92;55.90;;
38366;Laerm;943;51.568;6.998;2024-02-28T08:14:10;46.32;41.77;60.70;;
38366;Laerm;943;51.568;6.998;2024-02-28T08:16:39;47.99;40.86;59.13;;
38366;Laerm;943;51.568;6.998;2024-02-28T08:19:08;46.61;42.46;63.68;;
38366;Laerm;943;51.568;6.998;2024-02-28T08:21:37;46.52;42.39;57.06;;
38366;Laerm;943;51.568;6.998;2024-02-28T08:24:09;46.75;41.93;58.72;;
38366;Laerm;943;51.568;6.998;2024-02-28T08:26:42;45.27;41.47;61.37;;
38366;Laerm;943;51.568;6.998;2024-02-28T08:29:11;45.90;41.70;57.51;;
38366;Laerm;943;51.568;6.998;2024-02-28T08:31:44;48.49;42.11;78.72;;
38366;Laerm;943;51.568;6.998;2024-02-28T08:34:13;44.33;41.28;56.50;;
38366;Laerm;943;51.568;6.998;2024-02-28T08:36:45;45.78;39.93;59.36;;
38366;Laerm;943;51.568;6.998;2024-02-28T08:39:17;45.91;40.76;56.43;;
38366;Laerm;943;51.568;6.998;2024-02-28T08:41:45;46.75;41.14;56.42;;
38366;Laerm;943;51.568;6.998;2024-02-28T08:44:15;48.33;41.94;62.03;;
38366;Laerm;943;51.568;6.998;2024-02-28T08:46:49;47.88;41.25;66.86;;
38366;Laerm;943;51.568;6.998;2024-02-28T08:49:18;46.93;41.86;56.20;;
38366;Laerm;943;51.568;6.998;2024-02-28T08:51:47;46.67;42.06;57.94;;
38366;Laerm;943;51.568;6.998;2024-02-28T08:54:17;58.07;41.58;72.96;;
38366;Laerm;943;51.568;6.998;2024-02-28T08:56:46;45.55;41.87;55.44;;
38366;Laerm;943;51.568;6.998;2024-02-28T08:59:27;46.58;41.15;56.00;;
38366;Laerm;943;51.568;6.998;2024-02-28T09:01:55;47.68;40.39;66.87;;
38366;Laerm;943;51.568;6.998;2024-02-28T09:04:24;50.03;41.87;64.40;;
38366;Laerm;943;51.568;6.998;2024-02-28T09:06:54;50.80;41.83;65.08;;
38366;Laerm;943;51.568;6.998;2024-02-28T09:09:22;48.45;40.21;63.15;;
38366;Laerm;943;51.568;6.998;2024-02-28T09:11:53;47.43;40.47;64.71;;
38366;Laerm;943;51.568;6.998;2024-02-28T09:14:22;47.35;40.65;61.32;;
38366;Laerm;943;51.568;6.998;2024-02-28T09:17:00;47.12;40.80;60.93;;
38366;Laerm;943;51.568;6.998;2024-02-28T09:19:35;45.06;41.36;57.73;;
38366;Laerm;943;51.568;6.998;2024-02-28T09:22:07;46.39;41.06;61.46;;
38366;Laerm;943;51.568;6.998;2024-02-28T09:24:38;46.03;41.98;55.04;;
38366;Laerm;943;51.568;6.998;2024-02-28T09:27:07;48.55;44.13;62.67;;
38366;Laerm;943;51.568;6.998;2024-02-28T09:29:37;48.05;43.99;57.74;;
38366;Laerm;943;51.568;6.998;2024-02-28T09:32:07;48.17;43.39;55.66;;
38366;Laerm;943;51.568;6.998;2024-02-28T09:34:38;49.56;44.86;65.14;;
38366;Laerm;943;51.568;6.998;2024-02-28T09:37:09;49.90;43.25;66.67;;
38366;Laerm;943;51.568;6.998;2024-02-28T09:39:41;46.17;41.45;57.83;;
38366;Laerm;943;51.568;6.998;2024-02-28T09:42:10;49.90;42.19;73.77;;
38366;Laerm;943;51.568;6.998;2024-02-28T09:44:42;48.18;43.60;64.51;;
38366;Laerm;943;51.568;6.998;2024-02-28T09:47:17;47.39;42.99;54.53;;
38366;Laerm;943;51.568;6.998;2024-02-28T09:49:51;48.97;43.44;61.56;;
38366;Laerm;943;51.568;6.998;2024-02-28T09:52:22;50.17;43.46;64.51;;
38366;Laerm;943;51.568;6.998;2024-02-28T09:54:52;50.69;43.39;63.91;;
38366;Laerm;943;51.568;6.998;2024-02-28T09:57:30;47.88;42.89;54.01;;
38366;Laerm;943;51.568;6.998;2024-02-28T10:00:01;49.05;43.54;62.56;;
38366;Laerm;943;51.568;6.998;2024-02-28T10:02:35;47.52;43.65;61.07;;
38366;Laerm;943;51.568;6.998;2024-02-28T10:05:07;47.85;43.51;57.15;;
38366;Laerm;943;51.568;6.998;2024-02-28T10:07:36;47.23;43.24;56.58;;
38366;Laerm;943;51.568;6.998;2024-02-28T10:10:09;48.32;42.14;59.05;;
38366;Laerm;943;51.568;6.998;2024-02-28T10:12:51;45.45;39.42;64.62;;
38366;Laerm;943;51.568;6.998;2024-02-28T10:15:22;47.81;43.27;62.63;;
38366;Laerm;943;51.568;6.998;2024-02-28T10:17:51;49.11;45.75;54.27;;
38366;Laerm;943;51.568;6.998;2024-02-28T10:20:20;49.74;44.89;64.27;;
38366;Laerm;943;51.568;6.998;2024-02-28T10:22:53;50.60;45.17;66.11;;
38366;Laerm;943;51.568;6.998;2024-02-28T10:25:22;50.92;41.61;68.51;;
38366;Laerm;943;51.568;6.998;2024-02-28T10:27:52;50.35;43.68;68.48;;
38366;Laerm;943;51.568;6.998;2024-02-28T10:30:21;48.15;43.47;63.87;;
38366;Laerm;943;51.568;6.998;2024-02-28T10:32:51;45.49;40.60;58.85;;
38366;Laerm;943;51.568;6.998;2024-02-28T10:35:26;49.39;42.64;66.85;;
38366;Laerm;943;51.568;6.998;2024-02-28T10:37:56;47.64;42.54;58.00;;
38366;Laerm;943;51.568;6.998;2024-02-28T10:40:25;49.12;43.58;69.48;;
38366;Laerm;943;51.568;6.998;2024-02-28T10:43:00;49.79;43.56;70.38;;
38366;Laerm;943;51.568;6.998;2024-02-28T10:45:39;49.91;45.06;63.69;;
38366;Laerm;943;51.568;6.998;2024-02-28T10:48:29;49.99;45.08;72.75;;
38366;Laerm;943;51.568;6.998;2024-02-28T10:51:03;49.26;44.01;68.42;;
38366;Laerm;943;51.568;6.998;2024-02-28T10:53:44;47.03;42.03;59.31;;
38366;Laerm;943;51.568;6.998;2024-02-28T10:56:20;48.89;43.62;64.78;;
38366;Laerm;943;51.568;6.998;2024-02-28T10:58:59;50.34;45.02;72.27;;
38366;Laerm;943;51.568;6.998;2024-02-28T11:01:28;48.48;43.73;65.93;;
38366;Laerm;943;51.568;6.998;2024-02-28T11:04:03;51.09;42.83;67.36;;
38366;Laerm;943;51.568;6.998;2024-02-28T11:06:51;48.59;43.28;64.34;;
38366;Laerm;943;51.568;6.998;2024-02-28T11:09:28;50.42;43.87;68.56;;
38366;Laerm;943;51.568;6.998;2024-02-28T11:11:59;47.55;42.45;68.58;;
38366;Laerm;943;51.568;6.998;2024-02-28T11:14:29;50.76;41.44;65.11;;
38366;Laerm;943;51.568;6.998;2024-02-28T11:17:05;50.29;40.40;71.25;;
38366;Laerm;943;51.568;6.998;2024-02-28T11:19:34;44.76;41.58;51.68;;
38366;Laerm;943;51.568;6.998;2024-02-28T11:22:06;45.79;40.76;63.21;;
38366;Laerm;943;51.568;6.998;2024-02-28T11:24:44;44.61;39.91;64.89;;
38366;Laerm;943;51.568;6.998;2024-02-28T11:27:17;45.26;40.91;62.15;;
38366;Laerm;943;51.568;6.998;2024-02-28T11:29:50;48.26;39.98;70.49;;
38366;Laerm;943;51.568;6.998;2024-02-28T11:32:19;44.62;40.84;63.31;;
38366;Laerm;943;51.568;6.998;2024-02-28T11:34:52;45.08;40.33;51.11;;
38366;Laerm;943;51.568;6.998;2024-02-28T11:37:22;45.19;40.39;57.41;;
38366;Laerm;943;51.568;6.998;2024-02-28T11:39:54;45.16;40.04;63.20;;
38366;Laerm;943;51.568;6.998;2024-02-28T11:42:23;44.94;40.41;55.82;;
38366;Laerm;943;51.568;6.998;2024-02-28T11:45:00;44.09;40.31;51.36;;
38366;Laerm;943;51.568;6.998;2024-02-28T11:47:37;47.86;41.30;65.09;;
38366;Laerm;943;51.568;6.998;2024-02-28T11:50:07;45.37;40.83;58.94;;
38366;Laerm;943;51.568;6.998;2024-02-28T11:52:38;44.42;40.44;57.81;;
38366;Laerm;943;51.568;6.998;2024-02-28T11:55:07;44.27;40.61;55.12;;
38366;Laerm;943;51.568;6.998;2024-02-28T11:57:37;44.82;39.60;54.46;;
38366;Laerm;943;51.568;6.998;2024-02-28T12:00:13;45.31;40.65;63.62;;
38366;Laerm;943;51.568;6.998;2024-02-28T12:02:44;43.73;39.47;57.36;;
38366;Laerm;943;51.568;6.998;2024-02-28T12:05:13;44.75;40.41;56.42;;
38366;Laerm;943;51.568;6.998;2024-02-28T12:07:43;44.70;40.64;58.46;;
38366;Laerm;943;51.568;6.998;2024-02-28T12:10:13;46.98;41.57;55.20;;
38366;Laerm;943;51.568;6.998;2024-02-28T12:12:46;45.17;40.83;57.73;;
38366;Laerm;943;51.568;6.998;2024-02-28T12:15:19;45.61;40.57;60.24;;
38366;Laerm;943;51.568;6.998;2024-02-28T12:17:47;48.49;40.05;68.67;;
38366;Laerm;943;51.568;6.998;2024-02-28T12:20:16;47.54;41.27;69.84;;
38366;Laerm;943;51.568;6.998;2024-02-28T12:22:45;48.63;41.52;65.06;;
38366;Laerm;943;51.568;6.998;2024-02-28T12:25:14;46.73;42.21;65.98;;
38366;Laerm;943;51.568;6.998;2024-02-28T12:27:46;49.67;42.00;74.90;;
38366;Laerm;943;51.568;6.998;2024-02-28T12:30:18;46.87;40.63;66.54;;
38366;Laerm;943;51.568;6.998;2024-02-28T12:32:46;47.31;40.59;63.60;;
38366;Laerm;943;51.568;6.998;2024-02-28T12:35:16;58.71;41.02;81.31;;
38366;Laerm;943;51.568;6.998;2024-02-28T12:37:45;45.92;40.52;64.72;;
38366;Laerm;943;51.568;6.998;2024-02-28T12:40:17;47.40;42.11;68.64;;
38366;Laerm;943;51.568;6.998;2024-02-28T12:42:46;46.29;42.20;57.00;;
38366;Laerm;943;51.568;6.998;2024-02-28T12:45:16;46.03;40.41;59.82;;
38366;Laerm;943;51.568;6.998;2024-02-28T12:47:45;45.42;40.70;54.38;;
38366;Laerm;943;51.568;6.998;2024-02-28T12:50:19;47.29;41.47;64.19;;
38366;Laerm;943;51.568;6.998;2024-02-28T12:52:54;55.68;42.20;90.14;;
38366;Laerm;943;51.568;6.998;2024-02-28T12:55:22;45.16;40.41;56.43;;
38366;Laerm;943;51.568;6.998;2024-02-28T12:57:51;45.28;41.54;56.69;;
38366;Laerm;943;51.568;6.998;2024-02-28T13:00:21;53.89;40.23;83.15;;
38366;Laerm;943;51.568;6.998;2024-02-28T13:02:56;46.78;41.14;70.21;;
38366;Laerm;943;51.568;6.998;2024-02-28T13:05:26;46.24;40.89;58.33;;
38366;Laerm;943;51.568;6.998;2024-02-28T13:07:58;44.98;41.21;54.92;;
38366;Laerm;943;51.568;6.998;2024-02-28T13:10:27;45.53;41.49;55.83;;
38366;Laerm;943;51.568;6.998;2024-02-28T13:12:56;44.73;40.68;54.05;;
38366;Laerm;943;51.568;6.998;2024-02-28T13:15:26;46.55;42.03;60.79;;
38366;Laerm;943;51.568;6.998;2024-02-28T13:17:56;47.02;41.41;67.40;;
38366;Laerm;943;51.568;6.998;2024-02-28T13:20:25;48.92;41.34;70.10;;
38366;Laerm;943;51.568;6.998;2024-02-28T13:22:54;49.62;41.71;63.23;;
38366;Laerm;943;51.568;6.998;2024-02-28T13:25:22;54.73;42.19;70.82;;
38366;Laerm;943;51.568;6.998;2024-02-28T13:27:51;53.64;43.39;67.48;;
38366;Laerm;943;51.568;6.998;2024-02-28T13:30:19;59.87;42.15;69.45;;
38366;Laerm;943;51.568;6.998;2024-02-28T13:32:48;56.53;41.28;67.91;;
38366;Laerm;943;51.568;6.998;2024-02-28T13:35:17;50.96;41.17;69.57;;
38366;Laerm;943;51.568;6.998;2024-02-28T13:37:46;60.03;41.18;75.20;;
38366;Laerm;943;51.568;6.998;2024-02-28T13:40:14;64.34;41.13;75.91;;
38366;Laerm;943;51.568;6.998;2024-02-28T13:42:45;56.83;41.44;73.84;;
38366;Laerm;943;51.568;6.998;2024-02-28T13:45:15;60.67;42.82;85.50;;
38366;Laerm;943;51.568;6.998;2024-02-28T13:47:44;63.47;43.89;77.98;;
38366;Laerm;943;51.568;6.998;2024-02-28T13:50:14;50.12;42.25;68.95;;
38366;Laerm;943;51.568;6.998;2024-02-28T13:52:43;58.18;44.11;80.99;;
38366;Laerm;943;51.568;6.998;2024-02-28T13:55:12;55.95;43.07;77.92;;
38366;Laerm;943;51.568;6.998;2024-02-28T13:57:41;57.24;41.52;84.48;;
38366;Laerm;943;51.568;6.998;2024-02-28T14:00:15;54.65;40.84;74.62;;
38366;Laerm;943;51.568;6.998;2024-02-28T14:02:44;59.46;40.62;81.04;;
38366;Laerm;943;51.568;6.998;2024-02-28T14:05:17;59.69;41.82;80.10;;
38366;Laerm;943;51.568;6.998;2024-02-28T14:07:46;67.61;41.09;83.43;;
38366;Laerm;943;51.568;6.998;2024-02-28T14:10:16;61.98;43.46;91.29;;
38366;Laerm;943;51.568;6.998;2024-02-28T14:12:45;65.92;42.36;82.10;;
38366;Laerm;943;51.568;6.998;2024-02-28T14:15:16;64.21;41.92;90.63;;
38366;Laerm;943;51.568;6.998;2024-02-28T14:17:46;61.77;42.28;77.22;;
38366;Laerm;943;51.568;6.998;2024-02-28T14:20:15;56.43;41.48;80.86;;
38366;Laerm;943;51.568;6.998;2024-02-28T14:22:45;55.63;41.35;75.62;;
38366;Laerm;943;51.568;6.998;2024-02-28T14:25:17;56.42;42.09;79.51;;
38366;Laerm;943;51.568;6.998;2024-02-28T14:27:47;52.44;43.09;75.78;;